sensor_id;sensor_type;location;lat;lon;timestamp;P1;durP1;ratioP1;P2;durP2;ratioP2
35606;SDS011;21729;58.392;15.656;2023-08-01T00:02:07;2.43;;;1.10;;
35606;SDS011;21729;58.392;15.656;2023-08-01T00:04:34;1.80;;;1.00;;
35606;SDS011;21729;58.392;15.656;2023-08-01T00:07:02;2.10;;;1.10;;
35606;SDS011;21729;58.392;15.656;2023-08-01T00:09:30;2.72;;;1.10;;
35606;SDS011;21729;58.392;15.656;2023-08-01T00:11:57;1.05;;;0.95;;
35606;SDS011;21729;58.392;15.656;2023-08-01T00:14:24;1.70;;;1.00;;
35606;SDS011;21729;58.392;15.656;2023-08-01T00:16:51;2.42;;;1.27;;
35606;SDS011;21729;58.392;15.656;2023-08-01T00:19:19;1.45;;;0.95;;
35606;SDS011;21729;58.392;15.656;2023-08-01T00:21:46;1.85;;;1.02;;
35606;SDS011;21729;58.392;15.656;2023-08-01T00:24:14;1.92;;;1.00;;
35606;SDS011;21729;58.392;15.656;2023-08-01T00:26:41;1.63;;;1.00;;
35606;SDS011;21729;58.392;15.656;2023-08-01T00:29:08;1.60;;;1.02;;
35606;SDS011;21729;58.392;15.656;2023-08-01T00:31:35;1.40;;;1.00;;
35606;SDS011;21729;58.392;15.656;2023-08-01T00:34:02;1.42;;;1.00;;
35606;SDS011;21729;58.392;15.656;2023-08-01T00:36:29;1.80;;;0.90;;
35606;SDS011;21729;58.392;15.656;2023-08-01T00:38:57;2.43;;;1.20;;
35606;SDS011;21729;58.392;15.656;2023-08-01T00:41:25;1.20;;;0.90;;
35606;SDS011;21729;58.392;15.656;2023-08-01T00:43:52;2.78;;;1.10;;
35606;SDS011;21729;58.392;15.656;2023-08-01T00:46:20;3.30;;;1.10;;
35606;SDS011;21729;58.392;15.656;2023-08-01T00:48:47;2.47;;;1.30;;
35606;SDS011;21729;58.392;15.656;2023-08-01T00:51:14;2.03;;;1.15;;
35606;SDS011;21729;58.392;15.656;2023-08-01T00:53:43;2.17;;;1.00;;
35606;SDS011;21729;58.392;15.656;2023-08-01T00:56:11;1.30;;;1.00;;
35606;SDS011;21729;58.392;15.656;2023-08-01T00:58:40;1.80;;;1.40;;
35606;SDS011;21729;58.392;15.656;2023-08-01T01:01:07;2.72;;;1.15;;
35606;SDS011;21729;58.392;15.656;2023-08-01T01:03:34;2.33;;;1.00;;
35606;SDS011;21729;58.392;15.656;2023-08-01T01:06:05;3.00;;;1.23;;
35606;SDS011;21729;58.392;15.656;2023-08-01T01:08:38;1.20;;;1.10;;
35606;SDS011;21729;58.392;15.656;2023-08-01T01:11:05;1.90;;;1.30;;
35606;SDS011;21729;58.392;15.656;2023-08-01T01:13:33;1.92;;;1.10;;
35606;SDS011;21729;58.392;15.656;2023-08-01T01:16:02;3.00;;;1.30;;
35606;SDS011;21729;58.392;15.656;2023-08-01T01:18:29;3.28;;;1.10;;
35606;SDS011;21729;58.392;15.656;2023-08-01T01:20:58;1.55;;;1.30;;
35606;SDS011;21729;58.392;15.656;2023-08-01T01:23:25;2.63;;;1.30;;
35606;SDS011;21729;58.392;15.656;2023-08-01T01:25:53;2.63;;;1.30;;
35606;SDS011;21729;58.392;15.656;2023-08-01T01:28:22;1.48;;;1.05;;
35606;SDS011;21729;58.392;15.656;2023-08-01T01:30:51;2.35;;;1.00;;
35606;SDS011;21729;58.392;15.656;2023-08-01T01:33:19;3.05;;;1.27;;
35606;SDS011;21729;58.392;15.656;2023-08-01T01:35:46;2.90;;;1.23;;
35606;SDS011;21729;58.392;15.656;2023-08-01T01:38:15;1.40;;;1.20;;
35606;SDS011;21729;58.392;15.656;2023-08-01T01:40:43;2.13;;;1.17;;
35606;SDS011;21729;58.392;15.656;2023-08-01T01:43:10;1.40;;;1.00;;
35606;SDS011;21729;58.392;15.656;2023-08-01T01:45:37;1.30;;;1.20;;
35606;SDS011;21729;58.392;15.656;2023-08-01T01:48:04;1.52;;;1.10;;
35606;SDS011;21729;58.392;15.656;2023-08-01T01:50:31;1.20;;;1.10;;
35606;SDS011;21729;58.392;15.656;2023-08-01T01:52:59;2.00;;;1.23;;
35606;SDS011;21729;58.392;15.656;2023-08-01T01:55:27;1.13;;;1.00;;
35606;SDS011;21729;58.392;15.656;2023-08-01T01:57:55;1.83;;;1.10;;
35606;SDS011;21729;58.392;15.656;2023-08-01T02:00:22;2.08;;;1.10;;
35606;SDS011;21729;58.392;15.656;2023-08-01T02:02:49;3.30;;;1.20;;
35606;SDS011;21729;58.392;15.656;2023-08-01T02:05:16;2.60;;;1.20;;
35606;SDS011;21729;58.392;15.656;2023-08-01T02:07:43;2.20;;;1.37;;
35606;SDS011;21729;58.392;15.656;2023-08-01T02:10:10;1.80;;;1.20;;
35606;SDS011;21729;58.392;15.656;2023-08-01T02:12:39;2.17;;;1.20;;
35606;SDS011;21729;58.392;15.656;2023-08-01T02:15:06;2.05;;;1.30;;
35606;SDS011;21729;58.392;15.656;2023-08-01T02:17:34;1.48;;;1.30;;
35606;SDS011;21729;58.392;15.656;2023-08-01T02:20:01;1.75;;;1.30;;
35606;SDS011;21729;58.392;15.656;2023-08-01T02:22:29;1.63;;;1.25;;
35606;SDS011;21729;58.392;15.656;2023-08-01T02:24:56;2.10;;;1.10;;
35606;SDS011;21729;58.392;15.656;2023-08-01T02:27:23;2.10;;;1.40;;
35606;SDS011;21729;58.392;15.656;2023-08-01T02:29:52;5.63;;;1.30;;
35606;SDS011;21729;58.392;15.656;2023-08-01T02:32:19;3.88;;;1.40;;
35606;SDS011;21729;58.392;15.656;2023-08-01T02:34:47;2.55;;;1.35;;
35606;SDS011;21729;58.392;15.656;2023-08-01T02:37:14;4.15;;;1.50;;
35606;SDS011;21729;58.392;15.656;2023-08-01T02:39:41;1.65;;;1.30;;
35606;SDS011;21729;58.392;15.656;2023-08-01T02:42:08;2.10;;;1.50;;
35606;SDS011;21729;58.392;15.656;2023-08-01T02:44:35;1.33;;;1.23;;
35606;SDS011;21729;58.392;15.656;2023-08-01T02:47:04;2.80;;;1.35;;
35606;SDS011;21729;58.392;15.656;2023-08-01T02:49:31;2.25;;;1.30;;
35606;SDS011;21729;58.392;15.656;2023-08-01T02:51:58;1.63;;;1.40;;
35606;SDS011;21729;58.392;15.656;2023-08-01T02:54:25;2.70;;;1.50;;
35606;SDS011;21729;58.392;15.656;2023-08-01T02:56:52;2.67;;;1.50;;
35606;SDS011;21729;58.392;15.656;2023-08-01T02:59:19;1.98;;;1.33;;
35606;SDS011;21729;58.392;15.656;2023-08-01T03:01:47;2.72;;;1.30;;
35606;SDS011;21729;58.392;15.656;2023-08-01T03:04:15;2.30;;;1.30;;
35606;SDS011;21729;58.392;15.656;2023-08-01T03:06:42;1.58;;;1.40;;
35606;SDS011;21729;58.392;15.656;2023-08-01T03:09:09;1.27;;;1.17;;
35606;SDS011;21729;58.392;15.656;2023-08-01T03:11:36;2.38;;;1.40;;
35606;SDS011;21729;58.392;15.656;2023-08-01T03:14:03;1.95;;;1.30;;
35606;SDS011;21729;58.392;15.656;2023-08-01T03:16:31;2.80;;;1.50;;
35606;SDS011;21729;58.392;15.656;2023-08-01T03:18:58;2.28;;;1.40;;
35606;SDS011;21729;58.392;15.656;2023-08-01T03:21:31;1.90;;;1.40;;
35606;SDS011;21729;58.392;15.656;2023-08-01T03:23:58;1.95;;;1.40;;
35606;SDS011;21729;58.392;15.656;2023-08-01T03:26:25;1.75;;;1.50;;
35606;SDS011;21729;58.392;15.656;2023-08-01T03:28:53;1.60;;;1.30;;
35606;SDS011;21729;58.392;15.656;2023-08-01T03:31:21;2.60;;;1.60;;
35606;SDS011;21729;58.392;15.656;2023-08-01T03:33:48;1.65;;;1.55;;
35606;SDS011;21729;58.392;15.656;2023-08-01T03:36:16;2.05;;;1.30;;
35606;SDS011;21729;58.392;15.656;2023-08-01T03:38:44;1.75;;;1.40;;
35606;SDS011;21729;58.392;15.656;2023-08-01T03:41:12;2.42;;;1.40;;
35606;SDS011;21729;58.392;15.656;2023-08-01T03:43:39;4.65;;;1.65;;
35606;SDS011;21729;58.392;15.656;2023-08-01T03:46:06;2.13;;;1.60;;
35606;SDS011;21729;58.392;15.656;2023-08-01T03:48:34;2.90;;;1.58;;
35606;SDS011;21729;58.392;15.656;2023-08-01T03:51:01;2.65;;;1.65;;
35606;SDS011;21729;58.392;15.656;2023-08-01T03:53:29;2.70;;;1.50;;
35606;SDS011;21729;58.392;15.656;2023-08-01T03:55:57;2.47;;;1.70;;
35606;SDS011;21729;58.392;15.656;2023-08-01T03:58:24;1.95;;;1.83;;
35606;SDS011;21729;58.392;15.656;2023-08-01T04:00:51;1.80;;;1.70;;
35606;SDS011;21729;58.392;15.656;2023-08-01T04:03:18;2.88;;;1.80;;
35606;SDS011;21729;58.392;15.656;2023-08-01T04:05:46;3.00;;;1.77;;
35606;SDS011;21729;58.392;15.656;2023-08-01T04:08:13;1.95;;;1.52;;
35606;SDS011;21729;58.392;15.656;2023-08-01T04:10:40;2.70;;;1.70;;
35606;SDS011;21729;58.392;15.656;2023-08-01T04:13:09;3.10;;;1.70;;
35606;SDS011;21729;58.392;15.656;2023-08-01T04:15:36;1.90;;;1.70;;
35606;SDS011;21729;58.392;15.656;2023-08-01T04:18:03;1.77;;;1.60;;
35606;SDS011;21729;58.392;15.656;2023-08-01T04:20:30;2.63;;;1.50;;
35606;SDS011;21729;58.392;15.656;2023-08-01T04:22:58;2.05;;;1.45;;
35606;SDS011;21729;58.392;15.656;2023-08-01T04:25:25;2.25;;;1.60;;
35606;SDS011;21729;58.392;15.656;2023-08-01T04:27:53;2.90;;;1.70;;
35606;SDS011;21729;58.392;15.656;2023-08-01T04:30:21;2.97;;;1.70;;
35606;SDS011;21729;58.392;15.656;2023-08-01T04:32:48;1.88;;;1.77;;
